sensor_id;sensor_type;location;lat;lon;timestamp;P1;durP1;ratioP1;P2;durP2;ratioP2
7919;SDS011;18778;47.610;9.776;2023-05-07T00:02:20;7.77;;;7.10;;
7919;SDS011;18778;47.610;9.776;2023-05-07T00:04:46;7.40;;;6.67;;
7919;SDS011;18778;47.610;9.776;2023-05-07T00:07:11;8.10;;;7.30;;
7919;SDS011;18778;47.610;9.776;2023-05-07T00:09:37;8.23;;;6.60;;
7919;SDS011;18778;47.610;9.776;2023-05-07T00:12:02;7.47;;;6.80;;
7919;SDS011;18778;47.610;9.776;2023-05-07T00:14:28;7.50;;;6.80;;
7919;SDS011;18778;47.610;9.776;2023-05-07T00:16:53;7.80;;;6.73;;
7919;SDS011;18778;47.610;9.776;2023-05-07T00:19:20;7.63;;;6.87;;
7919;SDS011;18778;47.610;9.776;2023-05-07T00:21:45;9.60;;;6.50;;
7919;SDS011;18778;47.610;9.776;2023-05-07T00:24:11;8.13;;;6.50;;
7919;SDS011;18778;47.610;9.776;2023-05-07T00:26:37;7.30;;;6.60;;
7919;SDS011;18778;47.610;9.776;2023-05-07T00:29:02;7.60;;;6.10;;
7919;SDS011;18778;47.610;9.776;2023-05-07T00:31:28;7.20;;;6.30;;
7919;SDS011;18778;47.610;9.776;2023-05-07T00:33:54;6.40;;;5.80;;
7919;SDS011;18778;47.610;9.776;2023-05-07T00:36:20;8.27;;;6.53;;
7919;SDS011;18778;47.610;9.776;2023-05-07T00:38:45;8.17;;;6.87;;
7919;SDS011;18778;47.610;9.776;2023-05-07T00:41:11;7.27;;;6.57;;
7919;SDS011;18778;47.610;9.776;2023-05-07T00:43:36;6.60;;;5.90;;
7919;SDS011;18778;47.610;9.776;2023-05-07T00:46:02;6.17;;;5.57;;
7919;SDS011;18778;47.610;9.776;2023-05-07T00:48:28;16.00;;;6.40;;
7919;SDS011;18778;47.610;9.776;2023-05-07T00:50:53;6.50;;;6.00;;
7919;SDS011;18778;47.610;9.776;2023-05-07T00:53:19;7.23;;;6.33;;
7919;SDS011;18778;47.610;9.776;2023-05-07T00:55:46;10.13;;;6.10;;
7919;SDS011;18778;47.610;9.776;2023-05-07T00:58:11;7.40;;;5.40;;
7919;SDS011;18778;47.610;9.776;2023-05-07T01:00:37;6.83;;;6.20;;
7919;SDS011;18778;47.610;9.776;2023-05-07T01:03:03;6.43;;;5.83;;
7919;SDS011;18778;47.610;9.776;2023-05-07T01:05:29;6.50;;;5.77;;
7919;SDS011;18778;47.610;9.776;2023-05-07T01:07:55;8.37;;;6.00;;
7919;SDS011;18778;47.610;9.776;2023-05-07T01:10:22;7.13;;;6.23;;
7919;SDS011;18778;47.610;9.776;2023-05-07T01:12:49;7.63;;;6.70;;
7919;SDS011;18778;47.610;9.776;2023-05-07T01:15:16;6.07;;;5.57;;
7919;SDS011;18778;47.610;9.776;2023-05-07T01:17:42;8.30;;;6.60;;
7919;SDS011;18778;47.610;9.776;2023-05-07T01:20:08;8.83;;;6.47;;
7919;SDS011;18778;47.610;9.776;2023-05-07T01:22:39;7.23;;;6.37;;
7919;SDS011;18778;47.610;9.776;2023-05-07T01:25:05;10.93;;;6.77;;
7919;SDS011;18778;47.610;9.776;2023-05-07T01:27:32;7.40;;;6.70;;
7919;SDS011;18778;47.610;9.776;2023-05-07T01:30:02;9.20;;;7.27;;
7919;SDS011;18778;47.610;9.776;2023-05-07T01:32:38;8.23;;;7.43;;
7919;SDS011;18778;47.610;9.776;2023-05-07T01:35:18;7.03;;;6.43;;
7919;SDS011;18778;47.610;9.776;2023-05-07T01:37:47;7.47;;;6.77;;
7919;SDS011;18778;47.610;9.776;2023-05-07T01:40:14;7.50;;;6.80;;
7919;SDS011;18778;47.610;9.776;2023-05-07T01:42:40;10.47;;;7.13;;
7919;SDS011;18778;47.610;9.776;2023-05-07T01:45:07;7.00;;;6.30;;
7919;SDS011;18778;47.610;9.776;2023-05-07T01:47:33;10.03;;;7.10;;
7919;SDS011;18778;47.610;9.776;2023-05-07T01:50:00;7.20;;;6.60;;
7919;SDS011;18778;47.610;9.776;2023-05-07T01:52:27;7.17;;;6.47;;
7919;SDS011;18778;47.610;9.776;2023-05-07T01:54:53;6.87;;;6.23;;
7919;SDS011;18778;47.610;9.776;2023-05-07T01:57:19;7.10;;;6.40;;
7919;SDS011;18778;47.610;9.776;2023-05-07T01:59:44;7.07;;;6.47;;
7919;SDS011;18778;47.610;9.776;2023-05-07T02:02:10;8.43;;;6.87;;
7919;SDS011;18778;47.610;9.776;2023-05-07T02:04:36;7.73;;;6.90;;
7919;SDS011;18778;47.610;9.776;2023-05-07T02:07:01;6.83;;;5.77;;
7919;SDS011;18778;47.610;9.776;2023-05-07T02:09:27;7.37;;;6.67;;
7919;SDS011;18778;47.610;9.776;2023-05-07T02:11:53;7.80;;;7.00;;
7919;SDS011;18778;47.610;9.776;2023-05-07T02:14:18;10.47;;;7.10;;
7919;SDS011;18778;47.610;9.776;2023-05-07T02:16:45;7.83;;;7.03;;
7919;SDS011;18778;47.610;9.776;2023-05-07T02:19:11;9.90;;;7.50;;
7919;SDS011;18778;47.610;9.776;2023-05-07T02:21:36;10.73;;;7.90;;
7919;SDS011;18778;47.610;9.776;2023-05-07T02:24:02;8.60;;;7.73;;
7919;SDS011;18778;47.610;9.776;2023-05-07T02:26:27;10.10;;;7.67;;
7919;SDS011;18778;47.610;9.776;2023-05-07T02:28:53;8.63;;;7.60;;
7919;SDS011;18778;47.610;9.776;2023-05-07T02:31:19;8.73;;;7.80;;
7919;SDS011;18778;47.610;9.776;2023-05-07T02:33:45;10.53;;;8.13;;
7919;SDS011;18778;47.610;9.776;2023-05-07T02:36:11;8.83;;;7.63;;
7919;SDS011;18778;47.610;9.776;2023-05-07T02:38:37;8.93;;;8.13;;
7919;SDS011;18778;47.610;9.776;2023-05-07T02:41:03;8.77;;;7.90;;
7919;SDS011;18778;47.610;9.776;2023-05-07T02:43:29;8.80;;;7.80;;
7919;SDS011;18778;47.610;9.776;2023-05-07T02:48:30;11.23;;;9.40;;
7919;SDS011;18778;47.610;9.776;2023-05-07T02:50:57;9.17;;;7.90;;
7919;SDS011;18778;47.610;9.776;2023-05-07T02:53:23;8.63;;;7.73;;
7919;SDS011;18778;47.610;9.776;2023-05-07T02:55:51;8.43;;;7.70;;
7919;SDS011;18778;47.610;9.776;2023-05-07T02:58:17;8.47;;;7.67;;
7919;SDS011;18778;47.610;9.776;2023-05-07T03:00:43;10.90;;;8.50;;
7919;SDS011;18778;47.610;9.776;2023-05-07T03:03:08;11.10;;;8.53;;
7919;SDS011;18778;47.610;9.776;2023-05-07T03:05:34;9.97;;;8.83;;
7919;SDS011;18778;47.610;9.776;2023-05-07T03:07:59;10.17;;;8.83;;
7919;SDS011;18778;47.610;9.776;2023-05-07T03:10:25;9.90;;;8.97;;
7919;SDS011;18778;47.610;9.776;2023-05-07T03:12:50;9.87;;;8.97;;
7919;SDS011;18778;47.610;9.776;2023-05-07T03:15:16;9.70;;;8.77;;
7919;SDS011;18778;47.610;9.776;2023-05-07T03:17:42;9.50;;;8.60;;
7919;SDS011;18778;47.610;9.776;2023-05-07T03:20:08;9.73;;;8.10;;
7919;SDS011;18778;47.610;9.776;2023-05-07T03:22:34;9.23;;;8.43;;
7919;SDS011;18778;47.610;9.776;2023-05-07T03:25:00;9.60;;;8.70;;
7919;SDS011;18778;47.610;9.776;2023-05-07T03:27:25;9.40;;;8.47;;
7919;SDS011;18778;47.610;9.776;2023-05-07T03:29:51;9.80;;;8.80;;
7919;SDS011;18778;47.610;9.776;2023-05-07T03:32:16;9.63;;;8.73;;
7919;SDS011;18778;47.610;9.776;2023-05-07T03:34:42;9.47;;;8.40;;
7919;SDS011;18778;47.610;9.776;2023-05-07T03:37:07;9.60;;;8.53;;
7919;SDS011;18778;47.610;9.776;2023-05-07T03:39:33;11.53;;;9.40;;
7919;SDS011;18778;47.610;9.776;2023-05-07T03:41:59;11.13;;;9.60;;
7919;SDS011;18778;47.610;9.776;2023-05-07T03:44:25;11.87;;;9.23;;
7919;SDS011;18778;47.610;9.776;2023-05-07T03:46:51;10.33;;;9.40;;
7919;SDS011;18778;47.610;9.776;2023-05-07T03:49:16;11.03;;;9.47;;
7919;SDS011;18778;47.610;9.776;2023-05-07T03:51:42;11.10;;;10.07;;
7919;SDS011;18778;47.610;9.776;2023-05-07T03:54:08;13.23;;;9.90;;
7919;SDS011;18778;47.610;9.776;2023-05-07T03:56:34;10.80;;;9.80;;
7919;SDS011;18778;47.610;9.776;2023-05-07T03:59:00;11.40;;;9.83;;
7919;SDS011;18778;47.610;9.776;2023-05-07T04:01:26;11.67;;;9.20;;
7919;SDS011;18778;47.610;9.776;2023-05-07T04:03:51;10.80;;;9.47;;
7919;SDS011;18778;47.610;9.776;2023-05-07T04:06:17;10.13;;;8.70;;
7919;SDS011;18778;47.610;9.776;2023-05-07T04:08:43;9.60;;;8.70;;
7919;SDS011;18778;47.610;9.776;2023-05-07T04:11:08;9.47;;;8.60;;
7919;SDS011;18778;47.610;9.776;2023-05-07T04:13:34;9.57;;;8.67;;
7919;SDS011;18778;47.610;9.776;2023-05-07T04:16:00;10.30;;;9.20;;
7919;SDS011;18778;47.610;9.776;2023-05-07T04:18:27;10.53;;;9.00;;
7919;SDS011;18778;47.610;9.776;2023-05-07T04:20:53;10.20;;;9.20;;
7919;SDS011;18778;47.610;9.776;2023-05-07T04:23:19;9.93;;;8.90;;
7919;SDS011;18778;47.610;9.776;2023-05-07T04:25:44;9.57;;;8.67;;
7919;SDS011;18778;47.610;9.776;2023-05-07T04:28:10;10.50;;;9.40;;
7919;SDS011;18778;47.610;9.776;2023-05-07T04:30:37;12.37;;;9.17;;
7919;SDS011;18778;47.610;9.776;2023-05-07T04:33:03;10.43;;;9.33;;
7919;SDS011;18778;47.610;9.776;2023-05-07T04:35:28;9.87;;;8.97;;
7919;SDS011;18778;47.610;9.776;2023-05-07T04:37:54;10.37;;;9.37;;
7919;SDS011;18778;47.610;9.776;2023-05-07T04:40:19;10.17;;;9.27;;
7919;SDS011;18778;47.610;9.776;2023-05-07T04:42:45;10.80;;;9.70;;
7919;SDS011;18778;47.610;9.776;2023-05-07T04:45:11;10.67;;;9.60;;
7919;SDS011;18778;47.610;9.776;2023-05-07T04:47:37;11.33;;;10.17;;
7919;SDS011;18778;47.610;9.776;2023-05-07T04:50:03;10.07;;;9.07;;
7919;SDS011;18778;47.610;9.776;2023-05-07T04:52:29;11.30;;;8.63;;
7919;SDS011;18778;47.610;9.776;2023-05-07T04:54:56;10.40;;;9.30;;
7919;SDS011;18778;47.610;9.776;2023-05-07T04:57:22;10.27;;;9.27;;
7919;SDS011;18778;47.610;9.776;2023-05-07T04:59:47;9.97;;;9.07;;
7919;SDS011;18778;47.610;9.776;2023-05-07T05:02:13;9.67;;;8.60;;
7919;SDS011;18778;47.610;9.776;2023-05-07T05:04:38;9.60;;;8.57;;
7919;SDS011;18778;47.610;9.776;2023-05-07T05:07:04;8.93;;;8.03;;
7919;SDS011;18778;47.610;9.776;2023-05-07T05:09:30;9.00;;;8.20;;
7919;SDS011;18778;47.610;9.776;2023-05-07T05:11:55;8.37;;;7.57;;
7919;SDS011;18778;47.610;9.776;2023-05-07T05:14:21;10.23;;;7.30;;
7919;SDS011;18778;47.610;9.776;2023-05-07T05:16:47;8.53;;;7.40;;
7919;SDS011;18778;47.610;9.776;2023-05-07T05:19:12;7.40;;;6.70;;
7919;SDS011;18778;47.610;9.776;2023-05-07T05:21:38;8.43;;;7.07;;
7919;SDS011;18778;47.610;9.776;2023-05-07T05:24:03;8.87;;;6.80;;
7919;SDS011;18778;47.610;9.776;2023-05-07T05:26:29;6.87;;;6.00;;
7919;SDS011;18778;47.610;9.776;2023-05-07T05:28:54;6.30;;;5.70;;
7919;SDS011;18778;47.610;9.776;2023-05-07T05:31:20;6.13;;;5.50;;
7919;SDS011;18778;47.610;9.776;2023-05-07T05:33:46;8.00;;;5.63;;
7919;SDS011;18778;47.610;9.776;2023-05-07T05:36:11;6.20;;;5.10;;
7919;SDS011;18778;47.610;9.776;2023-05-07T05:38:38;5.27;;;4.77;;
7919;SDS011;18778;47.610;9.776;2023-05-07T05:41:04;9.43;;;5.30;;
7919;SDS011;18778;47.610;9.776;2023-05-07T05:43:30;5.97;;;5.37;;
7919;SDS011;18778;47.610;9.776;2023-05-07T05:45:56;4.80;;;4.43;;
7919;SDS011;18778;47.610;9.776;2023-05-07T05:48:22;5.73;;;4.40;;
7919;SDS011;18778;47.610;9.776;2023-05-07T05:50:47;4.43;;;4.03;;
7919;SDS011;18778;47.610;9.776;2023-05-07T05:53:13;4.80;;;4.10;;
7919;SDS011;18778;47.610;9.776;2023-05-07T05:55:38;3.70;;;3.40;;
7919;SDS011;18778;47.610;9.776;2023-05-07T05:58:05;3.40;;;3.10;;
7919;SDS011;18778;47.610;9.776;2023-05-07T06:00:30;3.80;;;3.43;;
7919;SDS011;18778;47.610;9.776;2023-05-07T06:02:56;3.43;;;3.13;;
7919;SDS011;18778;47.610;9.776;2023-05-07T06:05:22;3.33;;;3.13;;
7919;SDS011;18778;47.610;9.776;2023-05-07T06:07:47;6.33;;;2.90;;
7919;SDS011;18778;47.610;9.776;2023-05-07T06:10:13;3.77;;;3.30;;
7919;SDS011;18778;47.610;9.776;2023-05-07T06:12:39;3.03;;;2.83;;
7919;SDS011;18778;47.610;9.776;2023-05-07T06:15:05;2.97;;;2.80;;
7919;SDS011;18778;47.610;9.776;2023-05-07T06:17:31;3.20;;;3.00;;
7919;SDS011;18778;47.610;9.776;2023-05-07T06:19:57;3.93;;;2.60;;
7919;SDS011;18778;47.610;9.776;2023-05-07T06:22:23;2.57;;;2.03;;
7919;SDS011;18778;47.610;9.776;2023-05-07T06:24:48;3.63;;;2.50;;
7919;SDS011;18778;47.610;9.776;2023-05-07T06:27:14;3.23;;;2.03;;
7919;SDS011;18778;47.610;9.776;2023-05-07T06:29:40;2.00;;;1.90;;
7919;SDS011;18778;47.610;9.776;2023-05-07T06:32:06;2.30;;;2.10;;
7919;SDS011;18778;47.610;9.776;2023-05-07T06:34:35;2.37;;;2.10;;
7919;SDS011;18778;47.610;9.776;2023-05-07T06:37:01;1.90;;;1.80;;
7919;SDS011;18778;47.610;9.776;2023-05-07T06:39:27;2.00;;;1.90;;
7919;SDS011;18778;47.610;9.776;2023-05-07T06:41:53;2.30;;;2.00;;
7919;SDS011;18778;47.610;9.776;2023-05-07T06:44:18;1.97;;;1.87;;
7919;SDS011;18778;47.610;9.776;2023-05-07T06:46:44;2.33;;;2.10;;
7919;SDS011;18778;47.610;9.776;2023-05-07T06:49:10;2.10;;;2.00;;
7919;SDS011;18778;47.610;9.776;2023-05-07T06:51:36;2.23;;;2.03;;
7919;SDS011;18778;47.610;9.776;2023-05-07T06:54:01;2.17;;;1.83;;
7919;SDS011;18778;47.610;9.776;2023-05-07T06:56:29;2.33;;;2.00;;
7919;SDS011;18778;47.610;9.776;2023-05-07T06:58:55;2.17;;;2.00;;
7919;SDS011;18778;47.610;9.776;2023-05-07T07:01:20;2.10;;;2.00;;
7919;SDS011;18778;47.610;9.776;2023-05-07T07:03:46;3.00;;;1.77;;
7919;SDS011;18778;47.610;9.776;2023-05-07T07:06:12;3.03;;;1.73;;
7919;SDS011;18778;47.610;9.776;2023-05-07T07:08:38;2.07;;;1.90;;
7919;SDS011;18778;47.610;9.776;2023-05-07T07:11:04;1.90;;;1.80;;
7919;SDS011;18778;47.610;9.776;2023-05-07T07:13:30;1.90;;;1.80;;
7919;SDS011;18778;47.610;9.776;2023-05-07T07:15:56;2.73;;;2.10;;
7919;SDS011;18778;47.610;9.776;2023-05-07T07:18:21;1.87;;;1.77;;
7919;SDS011;18778;47.610;9.776;2023-05-07T07:20:47;1.83;;;1.73;;
7919;SDS011;18778;47.610;9.776;2023-05-07T07:23:13;1.60;;;1.50;;
7919;SDS011;18778;47.610;9.776;2023-05-07T07:25:39;2.30;;;2.10;;
7919;SDS011;18778;47.610;9.776;2023-05-07T07:28:04;1.73;;;1.70;;
7919;SDS011;18778;47.610;9.776;2023-05-07T07:30:30;3.00;;;2.00;;
7919;SDS011;18778;47.610;9.776;2023-05-07T07:32:56;2.63;;;1.67;;
7919;SDS011;18778;47.610;9.776;2023-05-07T07:35:27;1.60;;;1.50;;
7919;SDS011;18778;47.610;9.776;2023-05-07T07:37:56;3.33;;;1.57;;
7919;SDS011;18778;47.610;9.776;2023-05-07T07:40:21;1.97;;;1.87;;
7919;SDS011;18778;47.610;9.776;2023-05-07T07:42:47;2.63;;;1.70;;
7919;SDS011;18778;47.610;9.776;2023-05-07T07:45:13;1.87;;;1.70;;
7919;SDS011;18778;47.610;9.776;2023-05-07T07:47:39;3.60;;;1.60;;
7919;SDS011;18778;47.610;9.776;2023-05-07T07:50:05;1.80;;;1.70;;
7919;SDS011;18778;47.610;9.776;2023-05-07T07:52:31;1.63;;;1.53;;
7919;SDS011;18778;47.610;9.776;2023-05-07T07:54:57;1.50;;;1.50;;
7919;SDS011;18778;47.610;9.776;2023-05-07T07:57:23;2.50;;;1.67;;
7919;SDS011;18778;47.610;9.776;2023-05-07T07:59:49;1.90;;;1.80;;
7919;SDS011;18778;47.610;9.776;2023-05-07T08:02:15;2.43;;;1.90;;
7919;SDS011;18778;47.610;9.776;2023-05-07T08:04:40;1.87;;;1.70;;
7919;SDS011;18778;47.610;9.776;2023-05-07T08:07:08;1.70;;;1.60;;
7919;SDS011;18778;47.610;9.776;2023-05-07T08:09:34;3.47;;;1.63;;
7919;SDS011;18778;47.610;9.776;2023-05-07T08:12:00;1.63;;;1.60;;
7919;SDS011;18778;47.610;9.776;2023-05-07T08:14:26;1.40;;;1.40;;
7919;SDS011;18778;47.610;9.776;2023-05-07T08:16:53;1.50;;;1.40;;
7919;SDS011;18778;47.610;9.776;2023-05-07T08:19:19;1.40;;;1.20;;
7919;SDS011;18778;47.610;9.776;2023-05-07T08:21:45;1.73;;;1.43;;
7919;SDS011;18778;47.610;9.776;2023-05-07T08:24:12;2.63;;;1.57;;
7919;SDS011;18778;47.610;9.776;2023-05-07T08:26:41;1.60;;;1.50;;
7919;SDS011;18778;47.610;9.776;2023-05-07T08:29:07;2.67;;;1.60;;
7919;SDS011;18778;47.610;9.776;2023-05-07T08:31:33;1.97;;;1.80;;
7919;SDS011;18778;47.610;9.776;2023-05-07T08:33:59;1.97;;;1.87;;
7919;SDS011;18778;47.610;9.776;2023-05-07T08:36:24;1.73;;;1.63;;
7919;SDS011;18778;47.610;9.776;2023-05-07T08:38:50;2.60;;;1.60;;
7919;SDS011;18778;47.610;9.776;2023-05-07T08:41:16;1.90;;;1.80;;
7919;SDS011;18778;47.610;9.776;2023-05-07T08:43:42;2.90;;;2.00;;
7919;SDS011;18778;47.610;9.776;2023-05-07T08:46:19;1.87;;;1.77;;
7919;SDS011;18778;47.610;9.776;2023-05-07T08:48:49;3.90;;;1.80;;
7919;SDS011;18778;47.610;9.776;2023-05-07T08:51:17;1.87;;;1.70;;
7919;SDS011;18778;47.610;9.776;2023-05-07T08:53:44;2.10;;;1.90;;
7919;SDS011;18778;47.610;9.776;2023-05-07T08:56:13;2.17;;;1.97;;
7919;SDS011;18778;47.610;9.776;2023-05-07T08:58:40;1.90;;;1.80;;
7919;SDS011;18778;47.610;9.776;2023-05-07T09:01:13;2.00;;;1.90;;
7919;SDS011;18778;47.610;9.776;2023-05-07T09:03:39;2.10;;;1.80;;
7919;SDS011;18778;47.610;9.776;2023-05-07T09:06:06;2.10;;;2.00;;
7919;SDS011;18778;47.610;9.776;2023-05-07T09:08:32;2.57;;;1.90;;
7919;SDS011;18778;47.610;9.776;2023-05-07T09:10:59;2.57;;;2.03;;
7919;SDS011;18778;47.610;9.776;2023-05-07T09:13:24;2.10;;;1.97;;
7919;SDS011;18778;47.610;9.776;2023-05-07T09:15:52;2.27;;;1.97;;
7919;SDS011;18778;47.610;9.776;2023-05-07T09:18:17;2.60;;;1.67;;
7919;SDS011;18778;47.610;9.776;2023-05-07T09:20:43;2.40;;;1.80;;
7919;SDS011;18778;47.610;9.776;2023-05-07T09:23:08;1.70;;;1.60;;
7919;SDS011;18778;47.610;9.776;2023-05-07T09:25:34;1.70;;;1.60;;
7919;SDS011;18778;47.610;9.776;2023-05-07T09:28:01;1.87;;;1.70;;
7919;SDS011;18778;47.610;9.776;2023-05-07T09:30:28;1.70;;;1.60;;
7919;SDS011;18778;47.610;9.776;2023-05-07T09:33:00;2.07;;;1.97;;
7919;SDS011;18778;47.610;9.776;2023-05-07T09:35:27;2.03;;;1.80;;
7919;SDS011;18778;47.610;9.776;2023-05-07T09:37:53;2.30;;;2.10;;
7919;SDS011;18778;47.610;9.776;2023-05-07T09:40:21;2.20;;;1.87;;
7919;SDS011;18778;47.610;9.776;2023-05-07T09:42:51;2.73;;;1.93;;
7919;SDS011;18778;47.610;9.776;2023-05-07T09:45:24;2.40;;;2.20;;
7919;SDS011;18778;47.610;9.776;2023-05-07T09:47:53;2.00;;;1.90;;
7919;SDS011;18778;47.610;9.776;2023-05-07T09:50:21;4.67;;;2.47;;
7919;SDS011;18778;47.610;9.776;2023-05-07T09:53:07;2.50;;;2.30;;
7919;SDS011;18778;47.610;9.776;2023-05-07T09:55:35;2.83;;;2.07;;
7919;SDS011;18778;47.610;9.776;2023-05-07T09:58:02;8.60;;;2.73;;
7919;SDS011;18778;47.610;9.776;2023-05-07T10:00:29;2.17;;;2.07;;
7919;SDS011;18778;47.610;9.776;2023-05-07T10:02:57;2.30;;;2.20;;
7919;SDS011;18778;47.610;9.776;2023-05-07T10:05:23;2.67;;;2.20;;
7919;SDS011;18778;47.610;9.776;2023-05-07T10:07:49;3.10;;;2.30;;
7919;SDS011;18778;47.610;9.776;2023-05-07T10:10:15;2.83;;;2.53;;
7919;SDS011;18778;47.610;9.776;2023-05-07T10:12:42;4.27;;;2.33;;
7919;SDS011;18778;47.610;9.776;2023-05-07T10:15:09;2.40;;;2.10;;
7919;SDS011;18778;47.610;9.776;2023-05-07T10:17:36;2.40;;;2.20;;
7919;SDS011;18778;47.610;9.776;2023-05-07T10:20:02;3.47;;;2.10;;
7919;SDS011;18778;47.610;9.776;2023-05-07T10:22:30;2.60;;;2.40;;
7919;SDS011;18778;47.610;9.776;2023-05-07T10:25:03;2.30;;;2.20;;
7919;SDS011;18778;47.610;9.776;2023-05-07T10:27:33;2.73;;;2.17;;
7919;SDS011;18778;47.610;9.776;2023-05-07T10:32:48;2.77;;;1.90;;
7919;SDS011;18778;47.610;9.776;2023-05-07T10:35:17;2.37;;;2.10;;
7919;SDS011;18778;47.610;9.776;2023-05-07T10:37:46;2.23;;;2.03;;
7919;SDS011;18778;47.610;9.776;2023-05-07T10:40:13;2.10;;;1.90;;
7919;SDS011;18778;47.610;9.776;2023-05-07T10:42:39;2.03;;;1.60;;
7919;SDS011;18778;47.610;9.776;2023-05-07T10:45:21;1.80;;;1.70;;
7919;SDS011;18778;47.610;9.776;2023-05-07T10:50:45;1.80;;;1.70;;
7919;SDS011;18778;47.610;9.776;2023-05-07T10:55:43;1.97;;;1.87;;
7919;SDS011;18778;47.610;9.776;2023-05-07T10:58:22;3.10;;;1.80;;
7919;SDS011;18778;47.610;9.776;2023-05-07T11:00:55;2.07;;;1.80;;
7919;SDS011;18778;47.610;9.776;2023-05-07T11:03:22;2.60;;;1.73;;
7919;SDS011;18778;47.610;9.776;2023-05-07T11:05:48;2.03;;;1.80;;
7919;SDS011;18778;47.610;9.776;2023-05-07T11:12:04;3.33;;;1.60;;
7919;SDS011;18778;47.610;9.776;2023-05-07T11:17:09;2.03;;;1.80;;
7919;SDS011;18778;47.610;9.776;2023-05-07T11:19:48;1.70;;;1.60;;
7919;SDS011;18778;47.610;9.776;2023-05-07T11:22:35;1.53;;;1.43;;
7919;SDS011;18778;47.610;9.776;2023-05-07T11:25:04;1.97;;;1.77;;
7919;SDS011;18778;47.610;9.776;2023-05-07T11:27:31;1.70;;;1.60;;
7919;SDS011;18778;47.610;9.776;2023-05-07T11:29:57;1.70;;;1.60;;
7919;SDS011;18778;47.610;9.776;2023-05-07T11:34:53;2.73;;;1.90;;
7919;SDS011;18778;47.610;9.776;2023-05-07T11:37:20;1.97;;;1.60;;
7919;SDS011;18778;47.610;9.776;2023-05-07T11:39:46;2.80;;;1.70;;
7919;SDS011;18778;47.610;9.776;2023-05-07T11:42:27;1.50;;;1.50;;
7919;SDS011;18778;47.610;9.776;2023-05-07T11:44:57;1.70;;;1.60;;
7919;SDS011;18778;47.610;9.776;2023-05-07T11:47:23;2.20;;;2.00;;
7919;SDS011;18778;47.610;9.776;2023-05-07T11:49:50;2.47;;;1.60;;
7919;SDS011;18778;47.610;9.776;2023-05-07T11:52:17;2.07;;;1.87;;
7919;SDS011;18778;47.610;9.776;2023-05-07T11:57:15;5.10;;;2.17;;
7919;SDS011;18778;47.610;9.776;2023-05-07T11:59:41;1.97;;;1.70;;
7919;SDS011;18778;47.610;9.776;2023-05-07T12:02:09;2.97;;;1.77;;
7919;SDS011;18778;47.610;9.776;2023-05-07T12:04:34;1.90;;;1.80;;
7919;SDS011;18778;47.610;9.776;2023-05-07T12:07:00;1.80;;;1.70;;
7919;SDS011;18778;47.610;9.776;2023-05-07T12:09:26;1.70;;;1.60;;
7919;SDS011;18778;47.610;9.776;2023-05-07T12:11:52;2.50;;;1.90;;
7919;SDS011;18778;47.610;9.776;2023-05-07T12:14:18;3.73;;;1.77;;
7919;SDS011;18778;47.610;9.776;2023-05-07T12:16:44;2.30;;;2.10;;
7919;SDS011;18778;47.610;9.776;2023-05-07T12:19:10;2.80;;;1.90;;
7919;SDS011;18778;47.610;9.776;2023-05-07T12:21:39;1.97;;;1.73;;
7919;SDS011;18778;47.610;9.776;2023-05-07T12:24:05;2.87;;;2.00;;
7919;SDS011;18778;47.610;9.776;2023-05-07T12:26:31;2.63;;;1.80;;
7919;SDS011;18778;47.610;9.776;2023-05-07T12:28:57;2.77;;;2.10;;
7919;SDS011;18778;47.610;9.776;2023-05-07T12:31:25;2.97;;;1.77;;
7919;SDS011;18778;47.610;9.776;2023-05-07T12:33:51;2.70;;;1.87;;
7919;SDS011;18778;47.610;9.776;2023-05-07T12:36:17;2.27;;;1.83;;
7919;SDS011;18778;47.610;9.776;2023-05-07T12:38:43;2.20;;;1.80;;
7919;SDS011;18778;47.610;9.776;2023-05-07T12:41:09;3.80;;;1.90;;
7919;SDS011;18778;47.610;9.776;2023-05-07T12:43:37;1.60;;;1.50;;
7919;SDS011;18778;47.610;9.776;2023-05-07T12:46:04;3.50;;;2.00;;
7919;SDS011;18778;47.610;9.776;2023-05-07T12:48:31;4.57;;;2.00;;
7919;SDS011;18778;47.610;9.776;2023-05-07T12:50:59;2.87;;;1.80;;
7919;SDS011;18778;47.610;9.776;2023-05-07T12:53:26;1.90;;;1.80;;
7919;SDS011;18778;47.610;9.776;2023-05-07T12:55:53;3.97;;;2.00;;
7919;SDS011;18778;47.610;9.776;2023-05-07T12:58:30;2.30;;;2.10;;
7919;SDS011;18778;47.610;9.776;2023-05-07T13:01:01;1.90;;;1.77;;
7919;SDS011;18778;47.610;9.776;2023-05-07T13:03:31;4.17;;;2.10;;
7919;SDS011;18778;47.610;9.776;2023-05-07T13:06:00;2.53;;;1.60;;
7919;SDS011;18778;47.610;9.776;2023-05-07T13:08:32;3.80;;;2.47;;
7919;SDS011;18778;47.610;9.776;2023-05-07T13:11:01;2.67;;;2.00;;
7919;SDS011;18778;47.610;9.776;2023-05-07T13:13:29;2.27;;;1.83;;
7919;SDS011;18778;47.610;9.776;2023-05-07T13:15:55;2.03;;;1.93;;
7919;SDS011;18778;47.610;9.776;2023-05-07T13:18:21;4.83;;;2.23;;
7919;SDS011;18778;47.610;9.776;2023-05-07T13:20:46;2.63;;;2.20;;
7919;SDS011;18778;47.610;9.776;2023-05-07T13:23:12;3.70;;;2.57;;
7919;SDS011;18778;47.610;9.776;2023-05-07T13:25:37;1.93;;;1.77;;
7919;SDS011;18778;47.610;9.776;2023-05-07T13:28:03;2.07;;;1.97;;
7919;SDS011;18778;47.610;9.776;2023-05-07T13:30:29;2.20;;;2.00;;
7919;SDS011;18778;47.610;9.776;2023-05-07T13:32:56;4.67;;;2.10;;
7919;SDS011;18778;47.610;9.776;2023-05-07T13:35:21;2.83;;;1.80;;
7919;SDS011;18778;47.610;9.776;2023-05-07T13:37:47;2.27;;;1.73;;
7919;SDS011;18778;47.610;9.776;2023-05-07T13:40:14;2.20;;;2.00;;
7919;SDS011;18778;47.610;9.776;2023-05-07T13:42:40;1.80;;;1.63;;
7919;SDS011;18778;47.610;9.776;2023-05-07T13:45:06;2.27;;;1.87;;
7919;SDS011;18778;47.610;9.776;2023-05-07T13:47:32;2.00;;;1.90;;
7919;SDS011;18778;47.610;9.776;2023-05-07T13:49:58;2.10;;;1.93;;
7919;SDS011;18778;47.610;9.776;2023-05-07T13:52:23;2.93;;;2.73;;
7919;SDS011;18778;47.610;9.776;2023-05-07T13:54:49;1.77;;;1.63;;
7919;SDS011;18778;47.610;9.776;2023-05-07T13:57:17;2.10;;;1.90;;
7919;SDS011;18778;47.610;9.776;2023-05-07T13:59:42;2.93;;;2.00;;
7919;SDS011;18778;47.610;9.776;2023-05-07T14:02:08;8.63;;;2.37;;
7919;SDS011;18778;47.610;9.776;2023-05-07T14:04:34;7.30;;;2.50;;
7919;SDS011;18778;47.610;9.776;2023-05-07T14:07:00;3.20;;;2.00;;
7919;SDS011;18778;47.610;9.776;2023-05-07T14:09:25;2.63;;;2.33;;
7919;SDS011;18778;47.610;9.776;2023-05-07T14:11:51;3.60;;;1.83;;
7919;SDS011;18778;47.610;9.776;2023-05-07T14:14:17;2.00;;;1.90;;
7919;SDS011;18778;47.610;9.776;2023-05-07T14:16:43;3.33;;;1.80;;
7919;SDS011;18778;47.610;9.776;2023-05-07T14:19:09;2.95;;;1.95;;
7919;SDS011;18778;47.610;9.776;2023-05-07T14:21:35;1.67;;;1.58;;
7919;SDS011;18778;47.610;9.776;2023-05-07T14:24:02;3.40;;;1.80;;
7919;SDS011;18778;47.610;9.776;2023-05-07T14:26:27;3.45;;;2.35;;
7919;SDS011;18778;47.610;9.776;2023-05-07T14:28:53;1.90;;;1.80;;
7919;SDS011;18778;47.610;9.776;2023-05-07T14:31:20;5.25;;;2.05;;
7919;SDS011;18778;47.610;9.776;2023-05-07T14:33:49;2.70;;;1.93;;
7919;SDS011;18778;47.610;9.776;2023-05-07T14:36:15;2.20;;;2.00;;
7919;SDS011;18778;47.610;9.776;2023-05-07T14:38:41;2.10;;;2.00;;
7919;SDS011;18778;47.610;9.776;2023-05-07T14:41:07;3.00;;;2.57;;
7919;SDS011;18778;47.610;9.776;2023-05-07T14:43:33;2.80;;;2.33;;
7919;SDS011;18778;47.610;9.776;2023-05-07T14:46:00;5.17;;;2.13;;
7919;SDS011;18778;47.610;9.776;2023-05-07T14:48:26;2.23;;;1.90;;
7919;SDS011;18778;47.610;9.776;2023-05-07T14:50:52;2.50;;;1.77;;
7919;SDS011;18778;47.610;9.776;2023-05-07T14:53:18;4.93;;;2.20;;
7919;SDS011;18778;47.610;9.776;2023-05-07T14:55:43;4.97;;;2.20;;
7919;SDS011;18778;47.610;9.776;2023-05-07T14:58:10;2.37;;;2.17;;
7919;SDS011;18778;47.610;9.776;2023-05-07T15:00:35;2.57;;;2.30;;
7919;SDS011;18778;47.610;9.776;2023-05-07T15:03:05;2.40;;;2.13;;
7919;SDS011;18778;47.610;9.776;2023-05-07T15:05:32;3.60;;;2.30;;
7919;SDS011;18778;47.610;9.776;2023-05-07T15:07:58;3.00;;;2.30;;
7919;SDS011;18778;47.610;9.776;2023-05-07T15:10:24;2.20;;;2.00;;
7919;SDS011;18778;47.610;9.776;2023-05-07T15:12:50;5.87;;;2.27;;
7919;SDS011;18778;47.610;9.776;2023-05-07T15:15:15;2.90;;;2.00;;
7919;SDS011;18778;47.610;9.776;2023-05-07T15:17:41;4.00;;;2.37;;
7919;SDS011;18778;47.610;9.776;2023-05-07T15:20:07;2.40;;;2.20;;